This is the latest recevied weather packets stored in our database for station/object EA1GGY-1. If no packets are shown the sender has not sent any weather packets the latest 10 day(s).
| Time | Temp. | Humidity | Pressure | Rain* | Wind** | Luminosity | Snow |
|---|---|---|---|---|---|---|---|
| 1777609111 | 10° C | 77% | 1013.9 hPa | - | - | - | - |
| 1777608509 | 10° C | 77% | 1013.9 hPa | - | - | - | - |
| 1777607908 | 9.44° C | 77% | 1014 hPa | - | - | - | - |
| 1777607307 | 8.89° C | 78% | 1014.1 hPa | - | - | - | - |
| 1777606707 | 8.89° C | 77% | 1014.2 hPa | - | - | - | - |
| 1777606106 | 8.33° C | 78% | 1014.1 hPa | - | - | - | - |
| 1777605505 | 8.89° C | 76% | 1014.2 hPa | - | - | - | - |
| 1777604906 | 8.89° C | 76% | 1014.1 hPa | - | - | - | - |
| 1777604303 | 8.89° C | 76% | 1014.1 hPa | - | - | - | - |
| 1777603702 | 8.89° C | 76% | 1014.1 hPa | - | - | - | - |
| 1777603102 | 8.89° C | 75% | 1014.2 hPa | - | - | - | - |
| 1777602501 | 8.89° C | 76% | 1014.2 hPa | - | - | - | - |
| 1777601901 | 8.33° C | 76% | 1014.2 hPa | - | - | - | - |
| 1777601299 | 8.33° C | 76% | 1014.2 hPa | - | - | - | - |
| 1777600698 | 9.44° C | 73% | 1014.1 hPa | - | - | - | - |
| 1777600098 | 8.89° C | 76% | 1014.1 hPa | - | - | - | - |
| 1777599497 | 9.44° C | 74% | 1014.1 hPa | - | - | - | - |
| 1777598896 | 8.89° C | 76% | 1014.2 hPa | - | - | - | - |
| 1777598295 | 8.89° C | 77% | 1014.2 hPa | - | - | - | - |
| 1777597696 | 8.89° C | 76% | 1014.3 hPa | - | - | - | - |
| 1777597094 | 9.44° C | 76% | 1014.3 hPa | - | - | - | - |
| 1777596493 | 9.44° C | 77% | 1014.2 hPa | - | - | - | - |
| 1777595892 | 9.44° C | 77% | 1014.2 hPa | - | - | - | - |
| 1777595291 | 10° C | 77% | 1014.1 hPa | - | - | - | - |
| 1777594690 | 10° C | 78% | 1014.1 hPa | - | - | - | - |
* Rain since midnight (hover to see other rain measurements)
** Current wind speed in m/s (hover to see current wind gust speed)